Time;durP1;ratioP1;P1;durP2;ratioP2;P2;SDS_P1;SDS_P2;PMS_P1;PMS_P2;Temp;Humidity;BMP_temperature;BMP_pressure;BME280_temperature;BME280_humidity;BME280_pressure;Samples;Min_cycle;Max_cycle;Signal;HPM_P1;HPM_P2
2022/09/28 00:00:41;;;;;;;2.13;0.93;;;12.30;1.00;;;;;;4989900;28;20843;-59
2022/09/28 00:03:08;;;;;;;1.03;0.93;;;12.20;1.00;;;;;;4989434;28;20518;-59
2022/09/28 00:05:33;;;;;;;1.67;0.80;;;12.20;1.00;;;;;;4990166;28;20477;-57
2022/09/28 00:07:59;;;;;;;1.67;1.40;;;12.20;1.00;;;;;;4991381;28;20436;-57
2022/09/28 00:10:25;;;;;;;0.80;0.80;;;12.20;1.00;;;;;;4993494;28;20190;-58
2022/09/28 00:12:54;;;;;;;1.20;1.07;;;12.20;1.00;;;;;;4990216;28;21282;-58
2022/09/28 00:15:20;;;;;;;1.33;1.10;;;12.30;1.00;;;;;;4990487;28;20278;-58
2022/09/28 00:17:46;;;;;;;0.83;0.83;;;12.30;1.00;;;;;;4990079;28;20442;-58
2022/09/28 00:20:12;;;;;;;4.03;0.90;;;12.30;1.00;;;;;;4994836;28;20435;-58
2022/09/28 00:22:38;;;;;;;1.30;0.70;;;12.20;1.00;;;;;;4999550;28;20186;-58
2022/09/28 00:25:05;;;;;;;1.27;1.17;;;12.20;1.00;;;;;;4989121;28;20477;-59
2022/09/28 00:27:31;;;;;;;1.17;0.93;;;12.20;1.00;;;;;;4992014;28;20472;-58
2022/09/28 00:29:56;;;;;;;1.03;0.90;;;12.20;1.00;;;;;;4990064;28;20543;-58
2022/09/28 00:32:23;;;;;;;1.97;0.97;;;12.20;1.00;;;;;;4991074;28;20187;-59
2022/09/28 00:34:50;;;;;;;1.13;1.03;;;12.20;1.00;;;;;;4985832;28;20252;-58
2022/09/28 00:37:17;;;;;;;2.90;1.00;;;12.20;1.00;;;;;;4992657;28;20445;-59
2022/09/28 00:39:45;;;;;;;2.50;0.90;;;12.20;1.00;;;;;;4991182;28;20532;-58
2022/09/28 00:42:17;;;;;;;0.93;0.90;;;12.20;1.00;;;;;;4988437;28;20449;-58
2022/09/28 00:44:49;;;;;;;1.37;1.00;;;12.20;1.00;;;;;;4990629;28;20564;-58
2022/09/28 00:47:50;;;;;;;2.17;1.03;;;12.40;1.00;;;;;;4989195;28;20449;-58
2022/09/28 00:50:28;;;;;;;1.13;0.60;;;12.30;1.00;;;;;;4991153;28;20451;-59
2022/09/28 00:53:14;;;;;;;1.13;0.90;;;12.20;1.00;;;;;;4989573;28;20523;-58
2022/09/28 00:56:02;;;;;;;0.83;0.83;;;12.20;1.00;;;;;;4989398;28;20427;-58
2022/09/28 00:58:35;;;;;;;1.03;0.80;;;12.10;1.00;;;;;;4987871;28;20460;-58
2022/09/28 01:01:02;;;;;;;1.03;0.80;;;12.10;1.00;;;;;;4992412;28;20453;-58
2022/09/28 01:03:28;;;;;;;0.90;0.90;;;12.00;1.00;;;;;;4991022;28;20544;-58
2022/09/28 01:05:57;;;;;;;1.33;0.93;;;12.00;1.00;;;;;;4990332;28;20539;-57
2022/09/28 01:08:26;;;;;;;1.00;0.90;;;12.00;1.00;;;;;;4990751;28;20799;-58
2022/09/28 01:10:52;;;;;;;0.90;0.73;;;12.00;1.00;;;;;;4989454;28;20904;-58
2022/09/28 01:13:20;;;;;;;1.40;0.87;;;12.00;1.00;;;;;;4989463;28;20457;-58
2022/09/28 01:16:30;;;;;;;1.00;1.00;;;12.00;1.00;;;;;;4990728;28;20568;-58
2022/09/28 01:19:06;;;;;;;1.57;0.80;;;12.00;1.00;;;;;;4990563;28;20423;-58
2022/09/28 01:21:49;;;;;;;0.80;0.77;;;12.00;1.00;;;;;;4995780;28;20472;-58
2022/09/28 01:24:30;;;;;;;3.27;0.70;;;11.90;1.00;;;;;;5002589;28;20527;-58
2022/09/28 01:27:04;;;;;;;1.00;0.90;;;11.70;1.00;;;;;;4989392;28;20415;-58
2022/09/28 01:29:41;;;;;;;1.03;0.90;;;11.70;1.00;;;;;;4997945;28;20986;-58
2022/09/28 01:32:28;;;;;;;1.50;1.00;;;11.70;1.00;;;;;;4995687;28;20431;-58
2022/09/28 01:35:00;;;;;;;1.17;0.73;;;11.70;1.00;;;;;;4989432;28;20449;-58
2022/09/28 01:37:42;;;;;;;1.43;1.00;;;11.70;1.00;;;;;;5000841;28;20451;-58
2022/09/28 01:40:10;;;;;;;1.23;0.90;;;11.90;1.00;;;;;;4988833;28;20457;-58
2022/09/28 01:42:40;;;;;;;1.63;1.10;;;11.80;1.00;;;;;;4987649;28;20460;-58
2022/09/28 01:45:13;;;;;;;1.90;1.33;;;11.80;1.00;;;;;;4990116;28;20912;-58
2022/09/28 01:47:40;;;;;;;1.90;1.07;;;11.90;1.00;;;;;;4988318;28;20487;-55
2022/09/28 01:50:14;;;;;;;2.03;0.90;;;11.90;1.00;;;;;;4990547;28;20422;-55
2022/09/28 01:52:49;;;;;;;1.97;1.30;;;11.90;1.00;;;;;;4988742;28;20515;-53
2022/09/28 01:55:38;;;;;;;1.33;1.13;;;11.80;1.00;;;;;;4988529;28;20435;-55
2022/09/28 01:58:29;;;;;;;1.73;1.20;;;11.80;1.00;;;;;;4989846;28;20444;-54
2022/09/28 02:01:14;;;;;;;1.23;0.80;;;11.50;1.00;;;;;;4975505;28;20452;-54
2022/09/28 02:03:48;;;;;;;1.20;1.10;;;11.50;1.00;;;;;;4988249;28;20437;-53
2022/09/28 02:06:30;;;;;;;1.87;1.00;;;11.50;1.00;;;;;;4989447;28;20933;-53
2022/09/28 02:09:02;;;;;;;1.30;1.20;;;11.50;1.00;;;;;;4989254;28;20462;-53
2022/09/28 02:11:27;;;;;;;1.10;1.00;;;11.70;1.00;;;;;;4989238;28;20446;-54
2022/09/28 02:14:05;;;;;;;1.30;1.17;;;11.70;1.00;;;;;;4991981;28;20459;-54
2022/09/28 02:16:41;;;;;;;2.57;1.30;;;11.70;1.00;;;;;;4993808;28;20707;-55
2022/09/28 02:19:14;;;;;;;1.47;1.00;;;11.70;1.00;;;;;;4992043;28;20457;-54
2022/09/28 02:21:45;;;;;;;1.77;1.07;;;11.70;1.00;;;;;;4993806;28;20460;-54
2022/09/28 02:24:48;;;;;;;1.07;1.00;;;11.80;1.00;;;;;;4992979;28;20540;-54
2022/09/28 02:27:22;;;;;;;1.27;0.90;;;11.80;1.00;;;;;;4993195;28;20424;-55
2022/09/28 02:29:48;;;;;;;2.60;1.00;;;11.90;1.00;;;;;;4992318;28;20480;-57
2022/09/28 02:32:15;;;;;;;1.17;1.07;;;11.90;1.00;;;;;;4991872;28;20457;-53
2022/09/28 02:34:41;;;;;;;0.93;0.83;;;11.90;1.00;;;;;;4993137;28;20797;-56
2022/09/28 02:37:06;;;;;;;1.63;0.90;;;11.90;1.00;;;;;;4974915;28;20431;-54
2022/09/28 02:39:32;;;;;;;0.90;0.90;;;11.90;1.00;;;;;;4994955;28;20668;-54
2022/09/28 02:42:10;;;;;;;0.90;0.90;;;12.00;1.00;;;;;;4994886;28;20193;-54
2022/09/28 02:44:48;;;;;;;1.60;0.73;;;11.90;1.00;;;;;;4990964;28;20706;-55
2022/09/28 02:47:23;;;;;;;2.43;1.10;;;11.90;1.00;;;;;;4992574;28;20441;-55
2022/09/28 02:50:09;;;;;;;1.03;0.93;;;11.90;1.00;;;;;;4991465;28;20955;-54
2022/09/28 02:52:56;;;;;;;1.17;1.07;;;11.90;1.00;;;;;;4990692;28;20499;-54
2022/09/28 02:56:03;;;;;;;1.40;1.03;;;12.00;1.00;;;;;;4991636;28;21213;-53
2022/09/28 02:58:55;;;;;;;1.10;1.00;;;11.90;1.00;;;;;;4989035;28;20453;-55
2022/09/28 03:01:48;;;;;;;1.23;1.00;;;11.90;1.00;;;;;;4990864;28;20514;-53
2022/09/28 03:04:36;;;;;;;1.40;1.30;;;12.00;1.00;;;;;;4990110;28;20802;-54
2022/09/28 03:07:14;;;;;;;1.17;1.07;;;12.00;1.00;;;;;;4995796;28;20522;-54
2022/09/28 03:10:12;;;;;;;0.90;0.90;;;11.80;1.00;;;;;;4996394;28;20449;-55
2022/09/28 03:12:38;;;;;;;1.47;0.90;;;11.80;1.00;;;;;;4992176;28;20441;-52
2022/09/28 03:15:18;;;;;;;1.53;1.00;;;11.70;1.00;;;;;;4989969;28;20443;-52
2022/09/28 03:17:44;;;;;;;2.87;1.33;;;11.70;1.00;;;;;;4992520;28;20253;-55
2022/09/28 03:20:10;;;;;;;1.63;1.27;;;11.60;1.00;;;;;;4992640;28;20430;-54
2022/09/28 03:22:36;;;;;;;1.20;1.10;;;11.60;1.00;;;;;;4990555;28;20194;-53
2022/09/28 03:25:02;;;;;;;0.80;0.80;;;11.50;1.00;;;;;;5001759;28;20466;-54
2022/09/28 03:27:28;;;;;;;1.20;1.10;;;11.50;1.00;;;;;;5001745;28;20441;-54
2022/09/28 03:29:53;;;;;;;1.50;1.10;;;11.50;1.00;;;;;;4991258;28;21025;-55
2022/09/28 03:32:19;;;;;;;1.47;1.10;;;11.40;1.00;;;;;;4990368;28;20215;-57
2022/09/28 03:34:44;;;;;;;1.27;1.13;;;11.50;1.00;;;;;;4992465;28;20190;-53
2022/09/28 03:37:10;;;;;;;2.30;1.67;;;11.40;1.00;;;;;;4990785;28;20187;-54
2022/09/28 03:39:36;;;;;;;1.50;1.23;;;11.50;1.00;;;;;;4992013;28;20241;-54
2022/09/28 03:42:01;;;;;;;2.03;1.50;;;11.50;1.00;;;;;;4990470;28;20186;-54
2022/09/28 03:44:27;;;;;;;1.40;1.30;;;11.60;1.00;;;;;;4991527;28;20214;-54
2022/09/28 03:46:53;;;;;;;0.93;0.93;;;11.60;1.00;;;;;;4988389;28;20210;-53
2022/09/28 03:49:18;;;;;;;1.83;1.27;;;11.70;1.00;;;;;;4991942;28;20183;-53
2022/09/28 03:51:44;;;;;;;2.60;1.30;;;11.80;1.00;;;;;;4972853;28;20277;-53
2022/09/28 03:54:09;;;;;;;1.83;1.67;;;11.70;1.00;;;;;;4991620;28;20210;-55
2022/09/28 03:56:35;;;;;;;1.77;1.60;;;11.70;1.00;;;;;;4989939;28;20198;-55
2022/09/28 03:59:02;;;;;;;2.33;1.80;;;11.80;1.00;;;;;;4991534;28;20213;-55
2022/09/28 04:01:28;;;;;;;2.40;1.80;;;11.90;1.00;;;;;;4989235;28;20285;-54
2022/09/28 04:03:54;;;;;;;2.50;1.40;;;11.90;1.00;;;;;;4991346;28;20540;-54
2022/09/28 04:06:21;;;;;;;3.50;1.50;;;11.70;1.00;;;;;;4993100;28;20217;-54
2022/09/28 04:08:46;;;;;;;1.70;1.50;;;11.80;1.00;;;;;;4991485;28;20464;-52
2022/09/28 04:11:12;;;;;;;2.37;1.50;;;11.80;1.00;;;;;;4989274;28;20453;-52
2022/09/28 04:13:38;;;;;;;6.97;1.83;;;11.70;1.00;;;;;;4991199;28;20269;-56
2022/09/28 04:16:04;;;;;;;1.93;1.80;;;11.70;1.00;;;;;;4989538;28;20194;-54
2022/09/28 04:18:31;;;;;;;4.93;1.70;;;11.80;1.00;;;;;;4990095;28;20544;-54
2022/09/28 04:21:03;;;;;;;2.07;1.87;;;11.80;1.00;;;;;;4989000;28;20461;-53
2022/09/28 04:23:29;;;;;;;1.73;1.50;;;11.80;1.00;;;;;;4990741;28;20588;-55
2022/09/28 04:25:54;;;;;;;3.07;1.70;;;11.80;1.00;;;;;;4989725;28;20560;-54
2022/09/28 04:31:13;;;;;;;3.13;2.33;;;11.70;1.00;;;;;;4991491;28;20249;-56
2022/09/28 04:33:39;;;;;;;2.60;2.20;;;11.70;1.00;;;;;;4989048;28;20444;-53
2022/09/28 04:36:05;;;;;;;3.50;3.00;;;11.60;1.00;;;;;;4990411;28;20792;-52
2022/09/28 04:38:31;;;;;;;4.00;3.17;;;11.60;1.00;;;;;;5002384;28;20639;-54
2022/09/28 04:40:57;;;;;;;5.37;3.40;;;11.80;1.00;;;;;;4999490;28;20457;-55
2022/09/28 04:43:22;;;;;;;4.70;3.80;;;11.50;1.00;;;;;;4989240;28;20848;-54
2022/09/28 04:45:48;;;;;;;5.20;3.97;;;11.50;1.00;;;;;;4988807;28;20738;-53
2022/09/28 04:48:13;;;;;;;5.50;4.23;;;11.40;1.00;;;;;;4989596;28;20315;-53
2022/09/28 04:50:39;;;;;;;7.37;4.60;;;11.30;1.00;;;;;;4990060;28;20182;-53
2022/09/28 04:53:05;;;;;;;8.30;5.10;;;11.30;1.00;;;;;;4988254;28;20193;-53
2022/09/28 04:55:31;;;;;;;8.10;4.60;;;11.30;1.00;;;;;;4988773;28;20701;-55
2022/09/28 04:58:03;;;;;;;6.87;4.27;;;11.20;1.00;;;;;;4986057;28;20198;-53
2022/09/28 05:00:31;;;;;;;7.40;5.40;;;11.20;1.00;;;;;;4990069;28;20448;-56
2022/09/28 05:02:57;;;;;;;8.33;5.40;;;11.20;1.00;;;;;;4989585;28;20508;-55
2022/09/28 05:05:23;;;;;;;7.87;5.60;;;11.10;1.00;;;;;;4992121;28;20446;-56
2022/09/28 05:07:48;;;;;;;13.93;6.20;;;11.10;1.00;;;;;;4993188;28;20185;-55
2022/09/28 05:10:14;;;;;;;11.60;6.27;;;11.10;1.00;;;;;;4986658;28;20202;-56
2022/09/28 05:12:39;;;;;;;8.50;6.00;;;11.00;1.00;;;;;;4988877;28;20265;-56
2022/09/28 05:15:05;;;;;;;7.90;5.10;;;11.00;1.00;;;;;;4989785;28;20194;-55
2022/09/28 05:17:31;;;;;;;9.27;6.00;;;11.00;1.00;;;;;;4988623;28;20225;-54
2022/09/28 05:19:56;;;;;;;8.63;5.70;;;11.10;1.00;;;;;;4989783;28;20448;-53
2022/09/28 05:22:22;;;;;;;11.13;6.50;;;11.10;1.00;;;;;;4988440;28;20190;-54
2022/09/28 05:24:48;;;;;;;6.10;5.20;;;11.10;1.00;;;;;;4988948;28;20647;-55
2022/09/28 05:27:13;;;;;;;6.70;5.50;;;11.10;1.00;;;;;;4988982;28;20671;-55
2022/09/28 05:29:39;;;;;;;8.40;5.40;;;11.10;1.00;;;;;;4988755;28;20651;-54
2022/09/28 05:32:04;;;;;;;9.07;5.60;;;11.00;1.00;;;;;;4994264;28;20237;-61
2022/09/28 05:34:30;;;;;;;5.40;4.37;;;11.10;1.00;;;;;;4971540;28;20529;-61
2022/09/28 05:36:55;;;;;;;6.33;4.57;;;11.20;1.00;;;;;;4992416;28;20188;-61
2022/09/28 05:39:21;;;;;;;7.37;4.60;;;11.30;1.00;;;;;;5000268;28;20178;-61
2022/09/28 05:41:47;;;;;;;11.80;5.73;;;11.30;1.00;;;;;;4989913;28;20244;-61
2022/09/28 05:44:12;;;;;;;8.67;5.97;;;11.40;1.00;;;;;;4990389;28;20241;-61
2022/09/28 05:46:38;;;;;;;8.30;5.10;;;11.40;1.00;;;;;;4993120;28;20206;-61
2022/09/28 05:49:03;;;;;;;8.03;6.20;;;11.50;1.00;;;;;;4993680;28;20626;-61
2022/09/28 05:51:29;;;;;;;8.30;6.00;;;11.50;1.00;;;;;;4993933;28;20196;-61
2022/09/28 05:53:56;;;;;;;7.33;6.57;;;11.50;1.00;;;;;;4993706;28;20186;-61
2022/09/28 05:56:21;;;;;;;8.93;6.63;;;11.50;1.00;;;;;;4993686;28;20186;-60
2022/09/28 05:58:47;;;;;;;8.80;6.50;;;11.50;1.00;;;;;;4993694;28;20474;-61
2022/09/28 06:01:12;;;;;;;11.53;7.77;;;11.60;1.00;;;;;;4993340;28;20193;-61
2022/09/28 06:03:38;;;;;;;9.87;7.23;;;11.70;1.00;;;;;;4993770;28;20255;-60
2022/09/28 06:06:04;;;;;;;12.97;6.90;;;11.60;1.00;;;;;;4993925;28;20881;-61
2022/09/28 06:08:32;;;;;;;12.13;8.60;;;11.70;1.00;;;;;;4995509;28;20548;-62
2022/09/28 06:11:00;;;;;;;12.50;8.60;;;11.80;1.00;;;;;;4996923;28;20273;-62
2022/09/28 06:13:26;;;;;;;13.90;8.70;;;11.90;1.00;;;;;;4993561;28;20954;-61
2022/09/28 06:15:52;;;;;;;9.70;7.73;;;11.80;1.00;;;;;;4993480;28;20761;-62
2022/09/28 06:18:18;;;;;;;11.93;7.90;;;12.00;1.00;;;;;;4993231;28;20449;-61
2022/09/28 06:20:43;;;;;;;11.10;9.20;;;12.00;1.00;;;;;;4992587;28;20241;-62
2022/09/28 06:23:10;;;;;;;10.83;8.47;;;12.10;1.00;;;;;;4993485;28;20194;-60
2022/09/28 06:25:35;;;;;;;13.57;9.97;;;12.00;1.00;;;;;;4993369;28;20210;-62
2022/09/28 06:28:04;;;;;;;12.70;8.80;;;12.20;1.00;;;;;;4992611;28;20449;-62
2022/09/28 06:30:32;;;;;;;13.47;9.63;;;12.10;1.00;;;;;;4991493;28;20248;-61
2022/09/28 06:32:59;;;;;;;10.43;9.27;;;12.10;1.00;;;;;;4993055;28;20423;-61
2022/09/28 06:35:27;;;;;;;13.50;8.90;;;12.10;1.00;;;;;;4993388;28;20511;-63
2022/09/28 06:37:53;;;;;;;11.93;9.20;;;12.20;1.00;;;;;;4993404;28;20958;-62
2022/09/28 06:40:20;;;;;;;11.13;8.60;;;12.20;1.00;;;;;;4993093;28;20444;-61
2022/09/28 06:43:00;;;;;;;9.63;8.07;;;12.20;1.00;;;;;;4991448;28;20198;-61
2022/09/28 06:45:28;;;;;;;10.37;8.90;;;12.30;1.00;;;;;;4993247;28;20513;-60
2022/09/28 06:48:00;;;;;;;11.23;8.80;;;12.30;1.00;;;;;;4993097;28;20445;-60
2022/09/28 06:50:31;;;;;;;11.73;10.57;;;12.40;1.00;;;;;;4992445;28;20441;-60
2022/09/28 06:52:57;;;;;;;11.13;9.53;;;12.40;1.00;;;;;;4992601;28;20441;-60
2022/09/28 06:55:23;;;;;;;9.60;8.40;;;12.50;1.00;;;;;;4993099;28;20457;-60
2022/09/28 06:58:00;;;;;;;10.03;8.67;;;12.40;1.00;;;;;;4993310;28;20942;-61
2022/09/28 07:00:27;;;;;;;9.40;8.40;;;12.50;1.00;;;;;;4993173;28;20178;-61
2022/09/28 07:02:53;;;;;;;9.93;8.00;;;12.60;1.00;;;;;;4999015;28;20441;-61
2022/09/28 07:05:25;;;;;;;10.60;8.50;;;12.60;1.00;;;;;;4993009;28;20456;-61
2022/09/28 07:07:53;;;;;;;8.90;7.10;;;12.60;1.00;;;;;;4992970;28;20189;-60
2022/09/28 07:10:21;;;;;;;9.97;7.80;;;12.60;1.00;;;;;;4992214;28;20949;-61
2022/09/28 07:12:47;;;;;;;10.73;7.20;;;;;;;;;;4994113;28;20436;-61
2022/09/28 07:15:13;;;;;;;8.30;5.83;;;12.70;1.00;;;;;;5010615;28;20518;-60
2022/09/28 07:17:38;;;;;;;7.07;6.37;;;12.70;1.00;;;;;;4995857;28;20412;-61
2022/09/28 07:20:04;;;;;;;9.53;6.90;;;12.70;1.00;;;;;;5001742;28;20181;-60
2022/09/28 07:22:30;;;;;;;7.87;6.50;;;12.70;1.00;;;;;;4973767;28;20194;-61
2022/09/28 07:24:56;;;;;;;7.73;6.90;;;12.60;1.00;;;;;;4974619;28;20453;-62
2022/09/28 07:27:22;;;;;;;7.70;7.00;;;12.70;1.00;;;;;;4992053;28;20210;-61
2022/09/28 07:29:48;;;;;;;6.70;6.10;;;12.50;1.00;;;;;;4990751;28;20477;-61
2022/09/28 07:32:13;;;;;;;6.83;6.10;;;12.60;1.00;;;;;;4992057;28;20958;-61
2022/09/28 07:34:40;;;;;;;6.27;5.67;;;12.60;1.00;;;;;;5000943;28;20636;-62
2022/09/28 07:37:07;;;;;;;7.97;6.73;;;12.60;1.00;;;;;;4974375;28;20190;-60
2022/09/28 07:41:10;;;;;;;7.13;6.20;;;12.50;1.00;;;;;;4991791;28;20965;-60
2022/09/28 07:42:18;;;;;;;9.73;6.57;;;12.50;1.00;;;;;;4992733;28;20449;-61
2022/09/28 07:44:44;;;;;;;7.17;6.47;;;12.50;1.00;;;;;;4992072;28;20461;-61
2022/09/28 07:47:10;;;;;;;8.40;6.77;;;12.60;1.00;;;;;;4992082;28;20232;-60
2022/09/28 07:49:35;;;;;;;8.03;7.17;;;12.50;1.00;;;;;;4991818;28;20433;-60
2022/09/28 07:52:01;;;;;;;9.40;6.67;;;12.60;1.00;;;;;;4991357;28;20194;-61
2022/09/28 07:54:26;;;;;;;7.50;6.63;;;12.60;1.00;;;;;;4991245;28;20297;-60
2022/09/28 07:56:52;;;;;;;8.30;7.13;;;12.60;1.00;;;;;;4991401;28;20205;-61
2022/09/28 07:59:18;;;;;;;7.73;6.97;;;12.60;1.00;;;;;;4991572;28;20972;-61
2022/09/28 08:01:43;;;;;;;7.50;6.80;;;12.60;1.00;;;;;;4991217;28;20656;-60
2022/09/28 08:04:09;;;;;;;7.23;6.53;;;12.70;1.00;;;;;;4992090;28;20316;-61
2022/09/28 08:06:35;;;;;;;7.97;7.00;;;12.80;1.00;;;;;;4991376;28;20568;-60
2022/09/28 08:09:00;;;;;;;9.47;6.60;;;12.80;1.00;;;;;;4991042;28;20174;-62
2022/09/28 08:11:26;;;;;;;8.33;7.57;;;12.80;1.00;;;;;;5005568;28;20186;-61
2022/09/28 08:13:55;;;;;;;7.77;6.97;;;12.80;1.00;;;;;;4991651;28;20190;-60
2022/09/28 08:16:21;;;;;;;7.67;6.87;;;12.80;1.00;;;;;;4991231;28;20190;-61
2022/09/28 08:18:49;;;;;;;10.23;7.60;;;13.00;1.00;;;;;;4991018;28;21002;-60
2022/09/28 08:23:59;;;;;;;8.00;6.67;;;13.10;1.00;;;;;;4991231;28;20423;-61
2022/09/28 08:26:25;;;;;;;10.63;7.40;;;13.20;1.00;;;;;;4991463;28;20460;-60
2022/09/28 08:28:50;;;;;;;9.10;6.90;;;13.30;1.00;;;;;;4991660;28;20182;-60
2022/09/28 08:31:16;;;;;;;8.43;7.30;;;13.30;1.00;;;;;;4973102;28;20197;-60
2022/09/28 08:33:41;;;;;;;8.03;7.00;;;13.30;1.00;;;;;;4991058;28;20182;-61
2022/09/28 08:36:08;;;;;;;8.47;7.13;;;13.40;1.00;;;;;;4990898;28;20190;-61
2022/09/28 08:38:34;;;;;;;6.80;6.20;;;13.30;1.00;;;;;;4990120;28;20197;-60
2022/09/28 08:41:14;;;;;;;8.77;6.43;;;13.30;1.00;;;;;;4991118;28;20459;-61
2022/09/28 08:43:51;;;;;;;7.60;6.27;;;13.10;1.00;;;;;;5003565;28;20196;-61
2022/09/28 08:46:21;;;;;;;6.33;5.73;;;13.00;1.00;;;;;;5010636;28;20470;-61
2022/09/28 08:49:04;;;;;;;5.23;4.73;;;13.00;1.00;;;;;;5010790;28;20435;-62
2022/09/28 08:51:54;;;;;;;7.20;4.50;;;12.90;1.00;;;;;;5010517;28;20794;-61
2022/09/28 08:54:42;;;;;;;5.10;4.70;;;12.80;1.00;;;;;;5010329;28;20436;-61
2022/09/28 08:57:20;;;;;;;8.27;4.30;;;12.80;1.00;;;;;;5010349;28;20981;-61
2022/09/28 08:59:51;;;;;;;5.37;4.37;;;12.80;1.00;;;;;;5010528;28;20430;-61
2022/09/28 09:02:30;;;;;;;4.40;4.00;;;12.90;1.00;;;;;;4996944;28;20434;-61
2022/09/28 09:04:57;;;;;;;4.10;3.20;;;13.00;1.00;;;;;;4991049;28;20842;-59
2022/09/28 09:07:39;;;;;;;3.03;2.83;;;13.00;1.00;;;;;;4990566;28;20418;-61
2022/09/28 09:10:34;;;;;;;3.53;2.90;;;13.00;1.00;;;;;;4990858;28;20525;-61
2022/09/28 09:13:45;;;;;;;3.40;1.97;;;12.90;1.00;;;;;;4990669;28;20452;-60
2022/09/28 09:16:30;;;;;;;3.17;1.87;;;12.90;1.00;;;;;;4979613;28;20438;-61
2022/09/28 09:19:25;;;;;;;2.00;1.63;;;12.70;1.00;;;;;;4990723;28;20453;-60
2022/09/28 09:22:04;;;;;;;1.70;1.60;;;12.60;1.00;;;;;;4972378;28;20446;-60
2022/09/28 09:24:32;;;;;;;2.03;1.93;;;12.70;1.00;;;;;;4990776;28;20901;-61
2022/09/28 09:27:37;;;;;;;2.40;1.30;;;12.70;1.00;;;;;;4990818;28;20461;-60
2022/09/28 09:30:11;;;;;;;2.73;1.43;;;12.90;1.00;;;;;;4962526;28;20453;-61
2022/09/28 09:32:58;;;;;;;3.87;1.73;;;13.10;1.00;;;;;;4990735;28;20796;-60
2022/09/28 09:35:52;;;;;;;2.47;1.77;;;13.10;1.00;;;;;;4990020;28;20412;-61
2022/09/28 09:38:41;;;;;;;2.83;1.77;;;13.20;1.00;;;;;;4990675;28;20480;-61
2022/09/28 09:41:29;;;;;;;2.17;1.60;;;13.10;1.00;;;;;;4990591;28;20918;-62
2022/09/28 09:44:13;;;;;;;2.37;1.97;;;13.00;1.00;;;;;;4990124;28;20465;-60
2022/09/28 09:46:44;;;;;;;2.33;2.00;;;13.00;1.00;;;;;;4989715;28;20796;-61
2022/09/28 09:49:17;;;;;;;1.73;1.50;;;13.00;1.00;;;;;;4990198;28;20438;-61
2022/09/28 09:51:55;;;;;;;1.80;1.67;;;13.10;1.00;;;;;;4990498;28;20469;-62
2022/09/28 09:54:34;;;;;;;2.07;1.80;;;13.10;1.00;;;;;;4990351;28;20441;-59
2022/09/28 09:57:26;;;;;;;2.83;1.90;;;13.10;1.00;;;;;;4990354;28;20595;-61
2022/09/28 09:59:52;;;;;;;4.40;1.80;;;13.00;1.00;;;;;;4990470;28;20516;-61
2022/09/28 10:02:30;;;;;;;2.00;1.33;;;13.00;1.00;;;;;;4990351;28;20412;-61
2022/09/28 10:05:15;;;;;;;3.57;1.77;;;12.90;1.00;;;;;;4972829;28;20473;-60
2022/09/28 10:07:57;;;;;;;2.00;1.10;;;12.90;1.00;;;;;;4989438;28;20956;-61
2022/09/28 10:10:36;;;;;;;1.23;1.17;;;12.80;1.00;;;;;;4990147;28;20523;-60
2022/09/28 10:13:02;;;;;;;1.20;1.10;;;12.60;1.00;;;;;;4991420;28;20440;-61
2022/09/28 10:15:30;;;;;;;2.73;2.10;;;12.50;1.00;;;;;;4990036;28;20476;-61
2022/09/28 10:18:00;;;;;;;2.10;1.60;;;12.50;1.00;;;;;;4990369;28;20997;-61
2022/09/28 10:20:30;;;;;;;3.80;2.03;;;12.60;1.00;;;;;;4989261;28;20456;-58
2022/09/28 10:23:00;;;;;;;2.60;2.00;;;12.80;1.00;;;;;;4990114;28;20519;-60
2022/09/28 10:25:27;;;;;;;3.20;1.60;;;12.60;1.00;;;;;;4990502;28;21003;-61
2022/09/28 10:27:55;;;;;;;1.90;1.60;;;12.70;1.00;;;;;;4989704;28;20418;-61
2022/09/28 10:30:22;;;;;;;1.60;1.50;;;12.70;1.00;;;;;;4989893;28;20444;-61
2022/09/28 10:32:52;;;;;;;2.60;1.93;;;12.60;1.00;;;;;;4992688;28;20418;-61
2022/09/28 10:35:18;;;;;;;2.20;1.90;;;12.70;1.00;;;;;;4993423;28;20427;-61
2022/09/28 10:37:58;;;;;;;2.80;1.60;;;12.60;1.00;;;;;;4992834;28;20449;-61
2022/09/28 10:40:46;;;;;;;2.23;2.00;;;12.70;1.00;;;;;;4993295;28;20265;-61
2022/09/28 10:43:17;;;;;;;1.90;1.80;;;12.80;1.00;;;;;;4993160;28;20447;-60
2022/09/28 10:45:43;;;;;;;1.57;1.47;;;12.90;1.00;;;;;;4993137;28;20448;-62
2022/09/28 10:48:19;;;;;;;1.80;1.63;;;13.00;1.00;;;;;;4993170;28;20765;-62
2022/09/28 10:50:57;;;;;;;3.40;1.67;;;12.80;1.00;;;;;;4993074;28;20182;-61
2022/09/28 10:53:23;;;;;;;2.50;1.60;;;12.80;1.00;;;;;;4993387;28;20472;-60
2022/09/28 10:56:01;;;;;;;2.60;2.13;;;12.90;1.00;;;;;;4993399;28;20973;-60
2022/09/28 10:58:38;;;;;;;2.27;1.90;;;13.10;1.00;;;;;;4993320;28;20273;-61
2022/09/28 11:01:31;;;;;;;9.10;2.60;;;13.20;1.00;;;;;;4993217;28;20484;-61
2022/09/28 11:04:00;;;;;;;2.37;2.17;;;13.10;1.00;;;;;;4989303;28;20453;-61
2022/09/28 11:06:29;;;;;;;1.70;1.60;;;12.80;1.00;;;;;;4993103;28;20970;-60
2022/09/28 11:08:58;;;;;;;1.90;1.80;;;12.80;1.00;;;;;;4991858;28;20412;-61
2022/09/28 11:11:24;;;;;;;3.87;2.07;;;13.10;1.00;;;;;;4993378;28;20418;-61
2022/09/28 11:13:53;;;;;;;1.80;1.70;;;13.10;1.00;;;;;;4993206;28;20440;-61
2022/09/28 11:16:25;;;;;;;2.00;1.80;;;13.40;1.00;;;;;;4993195;28;20415;-61
2022/09/28 11:18:51;;;;;;;2.80;2.00;;;13.40;1.00;;;;;;4991846;28;20452;-60
2022/09/28 11:21:22;;;;;;;4.13;2.00;;;13.60;1.00;;;;;;4992820;28;20463;-61
2022/09/28 11:23:56;;;;;;;4.53;1.97;;;13.50;1.00;;;;;;4992896;28;20808;-60
2022/09/28 11:26:22;;;;;;;2.57;2.33;;;13.30;1.00;;;;;;4992818;28;20850;-60
2022/09/28 11:28:52;;;;;;;8.93;3.60;;;13.10;1.00;;;;;;4992621;28;20915;-61
2022/09/28 11:31:27;;;;;;;2.10;1.90;;;13.10;1.00;;;;;;4992697;28;20492;-61
2022/09/28 11:34:11;;;;;;;3.90;2.10;;;13.20;1.00;;;;;;4992522;28;20411;-60
2022/09/28 11:37:12;;;;;;;3.53;1.90;;;13.30;1.00;;;;;;4992452;28;20449;-61
2022/09/28 11:39:50;;;;;;;4.50;2.63;;;13.60;1.00;;;;;;4948710;28;20481;-62
2022/09/28 11:42:28;;;;;;;5.80;2.60;;;14.10;1.00;;;;;;4991861;28;20447;-61
2022/09/28 11:45:09;;;;;;;2.40;2.20;;;14.70;1.00;;;;;;4991789;28;21014;-60
2022/09/28 11:47:48;;;;;;;2.27;2.07;;;15.20;1.00;;;;;;4992405;28;20420;-61
2022/09/28 11:50:17;;;;;;;3.03;2.83;;;15.50;1.00;;;;;;4991958;28;20799;-60
2022/09/28 11:53:12;;;;;;;2.10;2.00;;;15.80;1.00;;;;;;4992128;28;20960;-61
2022/09/28 11:55:44;;;;;;;2.20;2.00;;;16.00;1.00;;;;;;4992302;28;20441;-61
2022/09/28 11:58:28;;;;;;;1.93;1.83;;;16.20;1.00;;;;;;4998601;28;20420;-60
2022/09/28 12:01:01;;;;;;;2.50;2.00;;;16.20;1.00;;;;;;4998010;28;20435;-60
2022/09/28 12:03:38;;;;;;;3.33;2.20;;;16.10;1.00;;;;;;4992015;28;20408;-61
2022/09/28 12:06:08;;;;;;;2.10;1.90;;;16.10;1.00;;;;;;4991122;28;20443;-62
2022/09/28 12:08:43;;;;;;;2.50;1.80;;;16.10;1.00;;;;;;4990830;28;20520;-61
2022/09/28 12:11:22;;;;;;;2.03;1.83;;;16.20;1.00;;;;;;4991738;28;20451;-61
2022/09/28 12:13:51;;;;;;;1.50;1.30;;;16.00;1.00;;;;;;4991805;28;20910;-61
2022/09/28 12:16:40;;;;;;;2.17;0.97;;;15.60;1.00;;;;;;4991720;28;20935;-61
2022/09/28 12:19:15;;;;;;;1.87;0.93;;;15.00;1.00;;;;;;4991647;28;20585;-61
2022/09/28 12:21:50;;;;;;;1.70;1.17;;;14.30;1.00;;;;;;4991945;28;20448;-60
2022/09/28 12:24:44;;;;;;;1.47;1.20;;;13.90;1.00;;;;;;4991573;28;20835;-61
2022/09/28 12:27:37;;;;;;;1.53;1.43;;;13.80;1.00;;;;;;4988670;28;20512;-60
2022/09/28 12:30:12;;;;;;;3.17;1.73;;;13.80;1.00;;;;;;4990657;28;20480;-60
2022/09/28 12:32:47;;;;;;;1.90;1.80;;;13.80;1.00;;;;;;4991778;28;20483;-61
2022/09/28 12:35:21;;;;;;;2.43;2.23;;;13.90;1.00;;;;;;4991516;28;20561;-60
2022/09/28 12:38:33;;;;;;;1.87;1.70;;;13.90;1.00;;;;;;4991025;28;20831;-60
2022/09/28 12:41:27;;;;;;;2.40;2.10;;;14.20;1.00;;;;;;4973646;28;20783;-61
2022/09/28 12:44:31;;;;;;;3.00;2.77;;;14.40;1.00;;;;;;4990880;28;20428;-62
2022/09/28 12:47:15;;;;;;;2.03;1.87;;;14.50;1.00;;;;;;4991060;28;20440;-60
2022/09/28 12:50:15;;;;;;;2.47;1.40;;;14.50;1.00;;;;;;4991026;28;20459;-61
2022/09/28 12:53:07;;;;;;;2.60;1.57;;;14.70;1.00;;;;;;4991243;28;20437;-60
2022/09/28 12:56:05;;;;;;;2.20;2.00;;;14.90;1.00;;;;;;4991059;28;20445;-61
2022/09/28 12:58:58;;;;;;;1.50;1.27;;;14.70;1.00;;;;;;4981318;28;20449;-60
2022/09/28 13:02:01;;;;;;;2.60;1.50;;;14.40;1.00;;;;;;4990878;28;20438;-61
2022/09/28 13:05:03;;;;;;;1.83;1.40;;;14.40;1.00;;;;;;4991035;28;20457;-61
2022/09/28 13:07:49;;;;;;;3.23;1.00;;;13.80;1.00;;;;;;4990838;28;20444;-60
2022/09/28 13:10:21;;;;;;;1.57;1.47;;;13.80;1.00;;;;;;4973278;28;20437;-61
2022/09/28 13:12:57;;;;;;;1.60;1.50;;;13.60;1.00;;;;;;4990623;28;20513;-61
2022/09/28 13:15:44;;;;;;;1.93;1.77;;;13.30;1.00;;;;;;4990731;28;21004;-61
2022/09/28 13:18:38;;;;;;;1.73;1.63;;;13.30;1.00;;;;;;4990080;28;20970;-60
2022/09/28 13:21:45;;;;;;;1.97;1.60;;;13.50;1.00;;;;;;4989213;28;20456;-60
2022/09/28 13:24:25;;;;;;;2.10;1.90;;;13.90;1.00;;;;;;4990587;28;20445;-61
2022/09/28 13:26:53;;;;;;;2.27;1.40;;;14.30;1.00;;;;;;4990272;28;20978;-61
2022/09/28 13:29:21;;;;;;;1.30;1.20;;;14.30;1.00;;;;;;4990594;28;20766;-61
2022/09/28 13:31:56;;;;;;;1.20;1.10;;;14.30;1.00;;;;;;4990158;28;20449;-61